createdAt,value
2018-07-29T00:04:35.589Z,0
2018-07-29T00:14:42.029Z,0
2018-07-29T00:24:40.879Z,0
2018-07-29T00:34:35.544Z,0
2018-07-29T00:44:35.554Z,0
2018-07-29T00:54:35.583Z,0
2018-07-29T01:04:45.881Z,0
2018-07-29T01:14:36.913Z,0
2018-07-29T01:24:35.647Z,0
2018-07-29T01:34:48.614Z,0
2018-07-29T01:44:35.670Z,0
2018-07-29T01:54:38.888Z,0
2018-07-29T02:04:35.779Z,0
2018-07-29T02:14:39.023Z,0
2018-07-29T02:24:35.666Z,0
2018-07-29T02:34:37.783Z,0
2018-07-29T02:44:35.711Z,0
2018-07-29T02:54:35.701Z,0
2018-07-29T03:04:36.727Z,0
2018-07-29T03:14:41.990Z,0
2018-07-29T03:24:42.582Z,0
2018-07-29T03:34:53.989Z,0
2018-07-29T03:44:35.713Z,5
2018-07-29T03:54:42.152Z,5
2018-07-29T04:04:35.814Z,10
2018-07-29T04:14:35.776Z,25
2018-07-29T04:24:38.870Z,35
2018-07-29T04:34:35.770Z,50
2018-07-29T04:44:35.828Z,45
2018-07-29T04:54:43.121Z,55
2018-07-29T05:04:38.993Z,55
2018-07-29T05:14:37.894Z,40
2018-07-29T05:24:36.823Z,70
2018-07-29T05:34:37.900Z,85
2018-07-29T05:44:35.760Z,95
2018-07-29T05:54:35.764Z,115
2018-07-29T06:04:35.749Z,140
2018-07-29T06:14:35.781Z,130
2018-07-29T06:24:35.786Z,145
2018-07-29T06:34:35.824Z,155
2018-07-29T06:44:35.775Z,155
2018-07-29T06:54:35.816Z,310
2018-07-29T07:04:35.794Z,295
2018-07-29T07:14:35.838Z,315
2018-07-29T07:24:35.819Z,365
2018-07-29T07:34:35.876Z,330
2018-07-29T07:44:35.854Z,310
2018-07-29T07:54:35.823Z,365
2018-07-29T08:04:36.023Z,375
2018-07-29T08:14:35.840Z,340
2018-07-29T08:24:35.829Z,355
2018-07-29T08:34:35.845Z,365
2018-07-29T08:44:35.847Z,320
2018-07-29T08:54:35.908Z,355
2018-07-29T09:04:35.812Z,345
2018-07-29T09:14:35.828Z,215
2018-07-29T09:24:35.838Z,245
2018-07-29T09:34:35.854Z,265
2018-07-29T09:44:35.836Z,345
2018-07-29T09:54:35.972Z,370
2018-07-29T10:04:35.905Z,370
2018-07-29T10:14:35.923Z,310
2018-07-29T10:24:36.006Z,295
2018-07-29T10:34:36.515Z,240
2018-07-29T10:44:35.862Z,315
2018-07-29T10:54:35.904Z,260
2018-07-29T11:04:35.898Z,320
2018-07-29T11:14:35.875Z,330
2018-07-29T11:24:35.914Z,345
2018-07-29T11:34:35.914Z,370
2018-07-29T11:44:35.968Z,355
2018-07-29T11:54:35.886Z,385
2018-07-29T12:04:35.903Z,360
2018-07-29T12:14:35.908Z,345
2018-07-29T12:24:35.916Z,340
2018-07-29T12:34:35.944Z,305
2018-07-29T12:44:35.936Z,270
2018-07-29T12:54:36.029Z,325
2018-07-29T13:04:35.926Z,330
2018-07-29T13:14:35.923Z,250
2018-07-29T13:24:35.974Z,185
2018-07-29T13:34:35.943Z,255
2018-07-29T13:44:36.171Z,275
2018-07-29T13:54:35.908Z,225
2018-07-29T14:04:35.923Z,235
2018-07-29T14:14:36.092Z,230
2018-07-29T14:24:35.943Z,250
2018-07-29T14:34:36.166Z,275
2018-07-29T14:44:36.007Z,260
2018-07-29T14:54:35.949Z,230
2018-07-29T15:04:35.938Z,215
2018-07-29T15:14:36.484Z,215
2018-07-29T15:24:36.283Z,195
2018-07-29T15:34:36.115Z,205
2018-07-29T15:44:50.250Z,160
2018-07-29T15:54:37.767Z,150
2018-07-29T16:04:41.269Z,150
2018-07-29T16:14:36.331Z,180
2018-07-29T16:24:37.194Z,220
2018-07-29T16:34:37.250Z,190
2018-07-29T16:44:36.123Z,155
2018-07-29T16:54:39.300Z,175
2018-07-29T17:04:37.405Z,165
2018-07-29T17:14:36.992Z,125
2018-07-29T17:24:36.335Z,80
2018-07-29T17:34:36.747Z,80
2018-07-29T17:44:36.497Z,70
2018-07-29T17:54:53.344Z,70
2018-07-29T18:04:39.907Z,90
2018-07-29T18:14:36.072Z,65
2018-07-29T18:24:51.387Z,55
2018-07-29T18:34:38.114Z,35
2018-07-29T18:44:57.634Z,25
2018-07-29T18:54:36.052Z,20
2018-07-29T19:04:36.029Z,10
2018-07-29T19:14:37.234Z,5
2018-07-29T19:24:43.624Z,0
2018-07-29T19:34:36.255Z,0
2018-07-29T19:44:36.044Z,0
2018-07-29T19:54:36.284Z,0
2018-07-29T20:04:36.596Z,0
2018-07-29T20:14:37.175Z,0
2018-07-29T20:24:36.118Z,0
2018-07-29T20:34:36.070Z,0
2018-07-29T20:44:36.668Z,0
2018-07-29T20:54:39.096Z,0
2018-07-29T21:04:52.403Z,0
2018-07-29T21:15:04.602Z,0
2018-07-29T21:24:36.086Z,0
2018-07-29T21:34:36.197Z,0
2018-07-29T21:44:36.121Z,0
2018-07-29T21:54:36.092Z,0
2018-07-29T22:04:36.135Z,0
2018-07-29T22:14:36.122Z,0
2018-07-29T22:24:36.081Z,0
2018-07-29T22:34:36.051Z,0
2018-07-29T22:44:37.019Z,0
2018-07-29T22:54:36.425Z,0
2018-07-29T23:04:36.058Z,0
2018-07-29T23:14:36.117Z,0
2018-07-29T23:24:36.063Z,0
2018-07-29T23:34:36.078Z,0
2018-07-29T23:44:36.093Z,0
2018-07-29T23:54:36.129Z,0
